createdAt,value
2022-09-23T04:28:54.492Z,0.857143
2022-09-23T04:29:54.524Z,0.857143
2022-09-23T04:30:54.551Z,0.857143
2022-09-23T04:31:54.694Z,1.71429
2022-09-23T04:32:54.630Z,2.5
2022-09-23T04:33:54.675Z,2.5
2022-09-23T04:34:54.717Z,3.35714
2022-09-23T04:35:54.757Z,4.21429
2022-09-23T04:36:54.839Z,5.85714
2022-09-23T04:37:54.823Z,6.71429
2022-09-23T04:38:54.862Z,8.35714
2022-09-23T04:39:54.902Z,10
2022-09-23T04:40:54.933Z,11.7143
2022-09-23T04:41:54.997Z,13.3571
2022-09-23T04:42:55.002Z,15
2022-09-23T04:43:55.037Z,17.5
2022-09-23T04:44:55.070Z,20
2022-09-23T04:45:55.103Z,23.3571
2022-09-23T04:46:55.163Z,26.7143
2022-09-23T04:47:55.168Z,30.8571
2022-09-23T04:48:55.205Z,35
2022-09-23T04:49:59.560Z,39.2143
2022-09-23T04:50:55.276Z,44.2143
2022-09-23T04:51:55.318Z,48.3571
2022-09-23T04:52:55.359Z,54.2143
2022-09-23T04:53:55.395Z,60
2022-09-23T04:54:55.429Z,65.8571
2022-09-23T04:55:55.471Z,71.7143
2022-09-23T04:56:55.514Z,78.3571
2022-09-23T04:57:55.546Z,85
2022-09-23T04:58:55.582Z,91.7143
2022-09-23T04:59:55.615Z,98.3571
2022-09-23T05:00:55.701Z,106.714
2022-09-23T05:01:55.839Z,114.214
2022-09-23T05:02:55.729Z,122.5
2022-09-23T05:03:55.762Z,130.857
2022-09-23T05:04:55.804Z,139.214
2022-09-23T05:05:55.841Z,147.5
2022-09-23T05:06:58.391Z,157.5
2022-09-23T05:07:55.907Z,168.357
2022-09-23T05:08:55.944Z,178.357
2022-09-23T05:09:55.970Z,188.357
2022-09-23T05:10:56.005Z,198.357
2022-09-23T05:11:56.067Z,209.214
2022-09-23T05:12:57.396Z,219.214
2022-09-23T05:13:56.135Z,229.214
2022-09-23T05:14:56.153Z,239.214
2022-09-23T05:15:56.295Z,249.214
2022-09-23T05:16:56.256Z,259.214
2022-09-23T05:17:56.259Z,269.214
2022-09-23T05:18:56.300Z,278.357
2022-09-23T05:19:56.335Z,286.714
2022-09-23T05:20:56.361Z,295
2022-09-23T05:21:56.392Z,304.214
2022-09-23T05:22:56.432Z,315
2022-09-23T05:23:56.478Z,326.714
2022-09-23T05:24:56.533Z,337.5
2022-09-23T05:25:56.542Z,346.714
2022-09-23T05:26:56.576Z,355.857
2022-09-23T05:27:56.617Z,364.214
2022-09-23T05:28:56.669Z,373.357
2022-09-23T05:29:56.729Z,383.357
2022-09-23T05:30:56.779Z,393.357
2022-09-23T05:31:56.823Z,403.357
2022-09-23T05:32:56.808Z,413.357
2022-09-23T05:33:56.843Z,421.714
2022-09-23T05:34:56.910Z,432.5
2022-09-23T05:35:56.907Z,443.357
2022-09-23T05:36:56.973Z,453.357
2022-09-23T05:37:56.984Z,462.5
2022-09-23T05:38:57.017Z,473.357
2022-09-23T05:39:57.053Z,485
2022-09-23T05:40:57.086Z,496.714
2022-09-23T05:41:57.166Z,508.357
2022-09-23T05:42:57.154Z,520
2022-09-23T05:43:57.192Z,531.714
2022-09-23T05:44:57.232Z,542.5
2022-09-23T05:45:57.275Z,551.714
2022-09-23T05:46:57.422Z,562.5
2022-09-23T05:47:57.347Z,573.357
2022-09-23T05:49:01.832Z,584.214
2022-09-23T05:50:00.186Z,593.357
2022-09-23T05:50:57.448Z,607.5
2022-09-23T05:51:57.520Z,619.214
2022-09-23T05:52:57.519Z,629.214
2022-09-23T05:53:57.554Z,669.214
2022-09-23T05:54:57.593Z,684.214
2022-09-23T05:55:57.741Z,704.214
2022-09-23T05:56:59.260Z,711.714
2022-09-23T05:57:57.696Z,737.5
2022-09-23T05:58:57.728Z,788.357
2022-09-23T05:59:57.781Z,800
2022-09-23T06:00:57.810Z,775
2022-09-23T06:01:57.898Z,740.857
2022-09-23T06:02:57.948Z,754.214
2022-09-23T06:03:57.893Z,764.214
2022-09-23T06:04:57.929Z,730.857
2022-09-23T06:05:57.958Z,693.357
2022-09-23T06:07:02.818Z,700
2022-09-23T06:07:58.028Z,726.714
2022-09-23T06:08:58.074Z,829.214
2022-09-23T06:09:58.087Z,794.214
2022-09-23T06:10:58.124Z,739.214
2022-09-23T06:11:58.165Z,778.357
2022-09-23T06:12:58.225Z,791.714
2022-09-23T06:13:58.232Z,766.714
2022-09-23T06:14:58.265Z,764.214
2022-09-23T06:15:58.360Z,777.5
2022-09-23T06:16:58.337Z,761.714
2022-09-23T06:17:58.396Z,763.357
2022-09-23T06:19:03.056Z,788.357
2022-09-23T06:19:58.430Z,847.5
2022-09-23T06:20:58.459Z,943.357
2022-09-23T06:21:58.490Z,1067.5
2022-09-23T06:22:58.519Z,1029.21
2022-09-23T06:23:58.560Z,940.857
2022-09-23T06:24:58.592Z,889.214
2022-09-23T06:25:58.641Z,897.5
2022-09-23T06:26:58.656Z,938.357
2022-09-23T06:27:58.693Z,1000
2022-09-23T06:28:58.762Z,1050.86
2022-09-23T06:29:58.756Z,1165
2022-09-23T06:30:58.911Z,1345.86
2022-09-23T06:31:58.896Z,1455
2022-09-23T06:32:58.856Z,1396.71
2022-09-23T06:34:07.264Z,1235.86
2022-09-23T06:34:58.924Z,1113.36
2022-09-23T06:35:59.853Z,1080
2022-09-23T06:37:02.407Z,1059.21
2022-09-23T06:37:59.029Z,1061.71
2022-09-23T06:38:59.111Z,1089.21
2022-09-23T06:39:59.102Z,1095
2022-09-23T06:40:59.138Z,1102.5
2022-09-23T06:41:59.177Z,1130.86
2022-09-23T06:42:59.206Z,1168.36
2022-09-23T06:43:59.267Z,1180
2022-09-23T06:44:59.281Z,1192.5
2022-09-23T06:45:59.324Z,1199.21
2022-09-23T06:46:59.441Z,1197.5
2022-09-23T06:47:59.393Z,1195
2022-09-23T06:48:59.423Z,1207.5
2022-09-23T06:49:59.460Z,1206.71
2022-09-23T06:50:59.499Z,1210.86
2022-09-23T06:51:59.533Z,1214.21
2022-09-23T06:52:59.569Z,1228.36
2022-09-23T06:53:59.699Z,1238.36
2022-09-23T06:54:59.643Z,1250.86
2022-09-23T06:55:59.694Z,1250.86
2022-09-23T06:56:59.703Z,1250.86
2022-09-23T06:57:59.745Z,1249.21
2022-09-23T06:58:59.784Z,1250
2022-09-23T06:59:59.811Z,1276.71
2022-09-23T07:00:59.869Z,1270
2022-09-23T07:02:00.044Z,1271.71
2022-09-23T07:02:59.985Z,1276.71
2022-09-23T07:03:59.956Z,1280.86
2022-09-23T07:05:00.002Z,1284.21
2022-09-23T07:06:00.027Z,1290.86
2022-09-23T07:07:00.099Z,1298.36
2022-09-23T07:08:00.109Z,1300.86
2022-09-23T07:09:00.127Z,1305
2022-09-23T07:10:00.181Z,1309.21
2022-09-23T07:11:00.187Z,1310
2022-09-23T07:12:00.251Z,1336.71
2022-09-23T07:13:00.263Z,1326.71
2022-09-23T07:14:00.303Z,1373.36
2022-09-23T07:15:00.342Z,1380
2022-09-23T07:16:00.462Z,1341.71
2022-09-23T07:17:00.439Z,1370
2022-09-23T07:18:00.444Z,1400
2022-09-23T07:19:00.477Z,1418.36
2022-09-23T07:20:00.514Z,1352.5
2022-09-23T07:21:00.554Z,1349.21
2022-09-23T07:22:00.598Z,1375
2022-09-23T07:23:00.612Z,1410.86
2022-09-23T07:24:00.652Z,1463.36
2022-09-23T07:25:00.685Z,1488.36
2022-09-23T07:26:00.714Z,1523.36
2022-09-23T07:27:00.754Z,1531.71
2022-09-23T07:28:00.787Z,1534.21
2022-09-23T07:29:00.817Z,1554.21
2022-09-23T07:30:00.853Z,1595.86
2022-09-23T07:31:01.148Z,1619.21
2022-09-23T07:32:11.469Z,1620
2022-09-23T07:33:01.122Z,1660.86
2022-09-23T07:34:01.018Z,1711.71
2022-09-23T07:35:01.031Z,1720.86
2022-09-23T07:36:01.074Z,1780.86
2022-09-23T07:37:01.103Z,1694.21
2022-09-23T07:38:01.146Z,1610.86
2022-09-23T07:39:01.175Z,1522.5
2022-09-23T07:40:01.209Z,1496.71
2022-09-23T07:41:01.244Z,1485
2022-09-23T07:42:01.280Z,1490
2022-09-23T07:43:01.319Z,1495.86
2022-09-23T07:44:01.360Z,1499.21
2022-09-23T07:45:01.398Z,1503.36
2022-09-23T07:46:01.464Z,1494.21
2022-09-23T07:47:01.466Z,1487.5
2022-09-23T07:48:01.505Z,1488.36
2022-09-23T07:49:01.652Z,1501.71
2022-09-23T07:50:01.564Z,1507.5
2022-09-23T07:51:01.604Z,1518.36
2022-09-23T07:52:01.646Z,1525.86
2022-09-23T07:53:01.711Z,1517.5
2022-09-23T07:54:01.745Z,1523.36
2022-09-23T07:55:01.795Z,1537.5
2022-09-23T07:56:01.806Z,1557.5
2022-09-23T07:57:01.835Z,1576.71
2022-09-23T07:58:01.869Z,1578.36
2022-09-23T07:59:01.928Z,1575
2022-09-23T08:00:01.960Z,1577.5
2022-09-23T08:01:01.973Z,1588.36
2022-09-23T08:02:02.055Z,1609.21
2022-09-23T08:03:02.160Z,1625.86
2022-09-23T08:04:02.102Z,1644.21
2022-09-23T08:05:02.110Z,1662.5
2022-09-23T08:06:02.149Z,1680
2022-09-23T08:07:02.197Z,1696.71
2022-09-23T08:08:02.251Z,1703.36
2022-09-23T08:09:02.242Z,1705
2022-09-23T08:10:02.306Z,1715.86
2022-09-23T08:11:02.308Z,1730
2022-09-23T08:12:02.338Z,1734.21
2022-09-23T08:13:02.373Z,1733.36
2022-09-23T08:14:02.493Z,1728.36
2022-09-23T08:15:02.477Z,1716.71
2022-09-23T08:16:02.522Z,1695.86
2022-09-23T08:17:02.522Z,1665
2022-09-23T08:18:02.557Z,1639.21
2022-09-23T08:19:02.634Z,1625.86
2022-09-23T08:20:02.647Z,1624.21
2022-09-23T08:21:02.663Z,1635.86
2022-09-23T08:22:02.696Z,1657.5
2022-09-23T08:23:02.759Z,1666.71
2022-09-23T08:24:02.820Z,1668.36
2022-09-23T08:25:02.838Z,1689.21
2022-09-23T08:26:02.872Z,1726.71
2022-09-23T08:27:02.881Z,1769.21
2022-09-23T08:28:02.920Z,1783.36
2022-09-23T08:29:02.954Z,1801.71
2022-09-23T08:30:02.984Z,1790
2022-09-23T08:31:03.111Z,1773.36
2022-09-23T08:32:03.053Z,1771.71
2022-09-23T08:33:03.121Z,1771.71
2022-09-23T08:34:03.215Z,1730
2022-09-23T08:35:03.162Z,1662.5
2022-09-23T08:36:03.200Z,1625.86
2022-09-23T08:37:03.231Z,1629.21
2022-09-23T08:38:03.294Z,1591.71
2022-09-23T08:39:03.297Z,1548.36
2022-09-23T08:40:03.548Z,1511.71
2022-09-23T08:41:03.401Z,1463.36
2022-09-23T08:42:03.394Z,1377.5
2022-09-23T08:43:03.426Z,1325
2022-09-23T08:44:03.460Z,1276.71
2022-09-23T08:45:03.493Z,1255
2022-09-23T08:46:03.657Z,1244.21
2022-09-23T08:47:03.569Z,1234.21
2022-09-23T08:48:03.601Z,1198.36
2022-09-23T08:49:03.635Z,1211.71
2022-09-23T08:50:03.671Z,1257.5
2022-09-23T08:51:03.735Z,1230.86
2022-09-23T08:52:03.737Z,1221.71
2022-09-23T08:53:03.800Z,1229.21
2022-09-23T08:54:03.809Z,1230
2022-09-23T08:55:03.844Z,1223.36
2022-09-23T08:56:03.885Z,1191.71
2022-09-23T08:57:03.925Z,1210.86
2022-09-23T08:58:24.341Z,1254.21
2022-09-23T08:59:03.998Z,1275.86
2022-09-23T09:00:04.048Z,1300
2022-09-23T09:01:04.147Z,1322.5
2022-09-23T09:02:04.096Z,1338.36
2022-09-23T09:03:04.123Z,1352.5
2022-09-23T09:04:04.160Z,1369.21
2022-09-23T09:05:04.194Z,1382.5
2022-09-23T09:06:04.258Z,1387.5
2022-09-23T09:07:24.905Z,1390
2022-09-23T09:08:04.327Z,1398.36
2022-09-23T09:09:04.331Z,1409.21
2022-09-23T09:10:04.364Z,1414.21
2022-09-23T09:11:04.428Z,1420.86
2022-09-23T09:12:04.432Z,1430
2022-09-23T09:13:04.500Z,1440
2022-09-23T09:14:04.506Z,1440
2022-09-23T09:15:04.576Z,1426.71
2022-09-23T09:16:04.665Z,1410
2022-09-23T09:17:04.687Z,1385
2022-09-23T09:18:04.752Z,1364.21
2022-09-23T09:19:04.698Z,1340
2022-09-23T09:20:04.738Z,1312.5
2022-09-23T09:21:04.744Z,1284.21
2022-09-23T09:22:04.774Z,1252.5
2022-09-23T09:23:04.817Z,1234.21
2022-09-23T09:24:04.850Z,1226.71
2022-09-23T09:25:04.917Z,1222.5
2022-09-23T09:26:04.925Z,1214.21
2022-09-23T09:27:04.996Z,1203.36
2022-09-23T09:28:04.999Z,1189.21
2022-09-23T09:29:17.230Z,1190
2022-09-23T09:30:05.066Z,1199.21
2022-09-23T09:31:05.134Z,1206.71
2022-09-23T09:32:05.161Z,1220
2022-09-23T09:33:05.164Z,1235
2022-09-23T09:34:05.188Z,1251.71
2022-09-23T09:35:05.233Z,1276.71
2022-09-23T09:36:05.289Z,1307.5
2022-09-23T09:37:07.180Z,1335.86
2022-09-23T09:38:05.356Z,1360
2022-09-23T09:39:05.510Z,1395.86
2022-09-23T09:40:05.471Z,1431.71
2022-09-23T09:41:05.438Z,1450
2022-09-23T09:42:05.471Z,1469.21
2022-09-23T09:43:05.535Z,1491.71
2022-09-23T09:44:05.659Z,1528.36
2022-09-23T09:45:05.594Z,1566.71
2022-09-23T09:46:05.619Z,1608.36
2022-09-23T09:47:05.646Z,1653.36
2022-09-23T09:48:05.681Z,1685
2022-09-23T09:49:05.785Z,1703.36
2022-09-23T09:50:05.775Z,1718.36
2022-09-23T09:51:05.784Z,1738.36
2022-09-23T09:52:05.802Z,1749.21
2022-09-23T09:53:05.805Z,1763.36
2022-09-23T09:54:05.815Z,1762.5
2022-09-23T09:55:05.850Z,1770
2022-09-23T09:56:06.081Z,1772.5
2022-09-23T09:57:05.968Z,1770.86
2022-09-23T09:58:05.958Z,1773.36
2022-09-23T09:59:06.160Z,1774.21
2022-09-23T10:00:06.025Z,1771.71
2022-09-23T10:01:06.074Z,1765.86
2022-09-23T10:02:06.125Z,1760.86
2022-09-23T10:03:06.141Z,1760
2022-09-23T10:04:06.244Z,1753.36
2022-09-23T10:05:06.215Z,1741.71
2022-09-23T10:06:06.290Z,1735
2022-09-23T10:07:06.284Z,1728.36
2022-09-23T10:08:06.311Z,1721.71
2022-09-23T10:09:06.508Z,1710
2022-09-23T10:10:22.039Z,1703.36
2022-09-23T10:11:06.422Z,1700
2022-09-23T10:12:06.442Z,1700
2022-09-23T10:13:06.476Z,1708.36
2022-09-23T10:14:06.511Z,1708.36
2022-09-23T10:15:06.569Z,1715.86
2022-09-23T10:16:06.577Z,1729.21
2022-09-23T10:17:06.711Z,1745
2022-09-23T10:18:06.643Z,1751.71
2022-09-23T10:19:06.856Z,1772.5
2022-09-23T10:20:06.709Z,1797.5
2022-09-23T10:21:06.743Z,1810.86
2022-09-23T10:22:06.783Z,1813.36
2022-09-23T10:23:06.811Z,1815
2022-09-23T10:24:06.869Z,1801.71
2022-09-23T10:25:06.874Z,1785
2022-09-23T10:26:06.918Z,1774.21
2022-09-23T10:27:06.957Z,1765
2022-09-23T10:28:08.094Z,1768.36
2022-09-23T10:29:07.060Z,1775.86
2022-09-23T10:30:07.080Z,1795
2022-09-23T10:31:07.137Z,1825
2022-09-23T10:32:07.132Z,1865
2022-09-23T10:33:07.161Z,1910
2022-09-23T10:34:07.196Z,1950
2022-09-23T10:35:07.254Z,1982.5
2022-09-23T10:36:07.260Z,2020.86
2022-09-23T10:37:07.317Z,2054.21
2022-09-23T10:38:07.369Z,2071.71
2022-09-23T10:39:07.444Z,2073.36
2022-09-23T10:40:07.463Z,2081.71
2022-09-23T10:41:07.459Z,2093.36
2022-09-23T10:42:07.477Z,2105.86
2022-09-23T10:43:07.563Z,2138.36
2022-09-23T10:44:07.592Z,2165
2022-09-23T10:45:07.569Z,2192.5
2022-09-23T10:46:07.625Z,2225.86
2022-09-23T10:47:07.630Z,2266.71
2022-09-23T10:48:07.693Z,2324.21
2022-09-23T10:49:07.706Z,2382.5
2022-09-23T10:50:07.786Z,2435.86
2022-09-23T10:51:07.801Z,2498.36
2022-09-23T10:52:07.801Z,2547.5
2022-09-23T10:53:07.841Z,2579.21
2022-09-23T10:54:07.969Z,2595
2022-09-23T10:55:07.933Z,2592.5
2022-09-23T10:56:07.947Z,2580.86
2022-09-23T10:57:07.984Z,2577.5
2022-09-23T10:58:08.022Z,2582.5
2022-09-23T10:59:08.053Z,2603.36
2022-09-23T11:00:08.110Z,2632.5
2022-09-23T11:01:08.207Z,2647.5
2022-09-23T11:02:08.186Z,2637.5
2022-09-23T11:03:08.195Z,2613.36
2022-09-23T11:04:08.561Z,2594.21
2022-09-23T11:05:08.316Z,2553.36
2022-09-23T11:06:08.285Z,2498.36
2022-09-23T11:07:08.334Z,2450.86
2022-09-23T11:08:08.345Z,2395.86
2022-09-23T11:09:08.383Z,2328.36
2022-09-23T11:10:18.442Z,2250.86
2022-09-23T11:11:08.470Z,2166.71
2022-09-23T11:12:08.479Z,2104.21
2022-09-23T11:13:08.517Z,2080
2022-09-23T11:14:08.617Z,2087.5
2022-09-23T11:15:08.592Z,2109.21
2022-09-23T11:16:08.790Z,2148.36
2022-09-23T11:17:08.701Z,2197.5
2022-09-23T11:18:08.688Z,2240
2022-09-23T11:19:08.718Z,2272.5
2022-09-23T11:20:08.750Z,2306.71
2022-09-23T11:21:08.821Z,2327.5
2022-09-23T11:22:08.824Z,2367.5
2022-09-23T11:23:08.859Z,2409.21
2022-09-23T11:24:08.887Z,2444.21
2022-09-23T11:25:08.923Z,2470
2022-09-23T11:26:08.994Z,2465.86
2022-09-23T11:27:08.987Z,2422.5
2022-09-23T11:28:09.020Z,2368.36
2022-09-23T11:29:09.069Z,2302.5
2022-09-23T11:30:09.082Z,2232.5
2022-09-23T11:31:09.180Z,2158.36
2022-09-23T11:32:09.144Z,2092.5
2022-09-23T11:33:09.172Z,2027.5
2022-09-23T11:34:09.312Z,1958.36
2022-09-23T11:35:09.245Z,1877.5
2022-09-23T11:36:09.304Z,1777.5
2022-09-23T11:37:09.318Z,1688.36
2022-09-23T11:38:09.362Z,1605
2022-09-23T11:39:09.394Z,1519.21
2022-09-23T11:40:09.498Z,1450.86
2022-09-23T11:41:09.457Z,1405.86
2022-09-23T11:42:09.496Z,1362.5
2022-09-23T11:43:09.530Z,1333.36
2022-09-23T11:44:09.601Z,1290
2022-09-23T11:45:09.609Z,1269.21
2022-09-23T11:46:09.785Z,1272.5
2022-09-23T11:47:09.659Z,1289.21
2022-09-23T11:48:09.717Z,1321.71
2022-09-23T11:49:09.731Z,1347.5
2022-09-23T11:50:09.761Z,1375
2022-09-23T11:51:09.825Z,1390.86
2022-09-23T11:52:09.833Z,1390.86
2022-09-23T11:53:09.866Z,1352.5
2022-09-23T11:54:09.929Z,1300.86
2022-09-23T11:55:19.308Z,1260.86
2022-09-23T11:56:09.961Z,1220
2022-09-23T11:57:09.996Z,1162.5
2022-09-23T11:58:20.979Z,1103.36
2022-09-23T11:59:10.366Z,1046.71
2022-09-23T12:00:10.087Z,997.5
2022-09-23T12:01:10.125Z,952.5
2022-09-23T12:02:18.561Z,924.214
2022-09-23T12:03:10.295Z,908.357
2022-09-23T12:04:19.212Z,900.857
2022-09-23T12:05:10.386Z,898.357
2022-09-23T12:06:10.299Z,872.5
2022-09-23T12:07:10.332Z,857.5
2022-09-23T12:08:10.355Z,840.857
2022-09-23T12:09:10.389Z,857.5
2022-09-23T12:10:10.468Z,880
2022-09-23T12:11:10.460Z,885.857
2022-09-23T12:12:10.493Z,879.214
2022-09-23T12:13:10.533Z,877.5
2022-09-23T12:14:10.589Z,874.214
2022-09-23T12:15:10.643Z,910.857
2022-09-23T12:16:10.668Z,965
2022-09-23T12:17:10.673Z,1030.86
2022-09-23T12:18:10.699Z,1104.21
2022-09-23T12:19:10.732Z,1161.71
2022-09-23T12:20:10.796Z,1210.86
2022-09-23T12:21:18.292Z,1265
2022-09-23T12:22:10.839Z,1295
2022-09-23T12:23:10.877Z,1299.21
2022-09-23T12:24:10.913Z,1287.5
2022-09-23T12:25:10.986Z,1252.5
2022-09-23T12:26:10.969Z,1210.86
2022-09-23T12:27:11.003Z,1170.86
2022-09-23T12:28:11.041Z,1137.5
2022-09-23T12:29:11.071Z,1108.36
2022-09-23T12:30:11.158Z,1078.36
2022-09-23T12:31:11.201Z,1041.71
2022-09-23T12:32:11.179Z,1009.21
2022-09-23T12:33:11.233Z,997.5
2022-09-23T12:34:11.247Z,973.357
2022-09-23T12:35:11.285Z,950
2022-09-23T12:36:11.317Z,931.714
2022-09-23T12:37:11.357Z,929.214
2022-09-23T12:38:11.386Z,940.857
2022-09-23T12:39:11.450Z,932.5
2022-09-23T12:40:11.500Z,918.357
2022-09-23T12:41:11.478Z,930.857
2022-09-23T12:42:11.497Z,940.857
2022-09-23T12:43:11.525Z,932.5
2022-09-23T12:44:11.576Z,545.857
2022-09-23T12:45:11.594Z,912.5
2022-09-23T12:46:11.672Z,901.714
2022-09-23T12:47:11.700Z,906.714
2022-09-23T12:48:11.703Z,916.714
2022-09-23T12:49:11.743Z,934.214
2022-09-23T12:50:16.635Z,927.5
2022-09-23T12:51:11.817Z,946.714
2022-09-23T12:52:11.888Z,945.857
2022-09-23T12:53:11.890Z,952.5
2022-09-23T12:54:11.924Z,966.714
2022-09-23T12:55:11.956Z,987.5
2022-09-23T12:56:11.997Z,1005
2022-09-23T12:57:12.050Z,1025.86
2022-09-23T12:58:12.063Z,1050
2022-09-23T12:59:12.099Z,1045.86
2022-09-23T13:00:12.129Z,1015
2022-09-23T13:01:12.240Z,1031.71
2022-09-23T13:02:12.323Z,1024.21
2022-09-23T13:03:12.231Z,1023.36
2022-09-23T13:04:12.259Z,1002.5
2022-09-23T13:05:12.290Z,1001.71
2022-09-23T13:06:12.348Z,1011.71
2022-09-23T13:07:12.362Z,1034.21
2022-09-23T13:08:12.396Z,1035.86
2022-09-23T13:09:12.429Z,999.214
2022-09-23T13:10:12.466Z,985
2022-09-23T13:11:12.532Z,964.214
2022-09-23T13:12:12.534Z,934.214
2022-09-23T13:13:12.567Z,906.714
2022-09-23T13:14:12.609Z,875
2022-09-23T13:15:12.641Z,853.357
2022-09-23T13:16:12.753Z,841.714
2022-09-23T13:17:12.712Z,816.714
2022-09-23T13:18:12.748Z,818.357
2022-09-23T13:19:12.782Z,800
2022-09-23T13:20:12.844Z,783.357
2022-09-23T13:21:12.853Z,765
2022-09-23T13:22:12.893Z,755
2022-09-23T13:23:12.923Z,744.214
2022-09-23T13:24:12.959Z,740
2022-09-23T13:25:13.026Z,732.5
2022-09-23T13:26:13.035Z,729.214
2022-09-23T13:27:13.101Z,742.5
2022-09-23T13:28:13.093Z,726.714
2022-09-23T13:29:13.126Z,744.214
2022-09-23T13:30:13.172Z,730.857
2022-09-23T13:31:13.203Z,766.714
2022-09-23T13:32:13.270Z,784.214
2022-09-23T13:33:13.272Z,870
2022-09-23T13:34:13.303Z,943.357
2022-09-23T13:35:13.364Z,986.714
2022-09-23T13:36:13.378Z,990.857
2022-09-23T13:37:13.408Z,882.5
2022-09-23T13:38:13.440Z,841.714
2022-09-23T13:39:13.512Z,906.714
2022-09-23T13:40:13.566Z,1040
2022-09-23T13:41:13.550Z,1218.36
2022-09-23T13:42:13.593Z,1365
2022-09-23T13:43:13.628Z,1388.36
2022-09-23T13:44:13.687Z,1351.71
2022-09-23T13:45:13.700Z,1311.71
2022-09-23T13:46:13.869Z,1217.5
2022-09-23T13:47:13.765Z,1062.5
2022-09-23T13:48:13.831Z,933.357
2022-09-23T13:49:13.838Z,851.714
2022-09-23T13:50:13.867Z,796.714
2022-09-23T13:51:13.904Z,747.5
2022-09-23T13:52:13.940Z,740.857
2022-09-23T13:53:13.994Z,747.5
2022-09-23T13:54:14.011Z,753.357
2022-09-23T13:55:14.073Z,760
2022-09-23T13:56:14.083Z,762.5
2022-09-23T13:57:14.121Z,765
2022-09-23T13:58:14.157Z,780.857
2022-09-23T13:59:14.220Z,794.214
2022-09-23T14:00:14.232Z,803.357
2022-09-23T14:01:14.276Z,817.5
2022-09-23T14:02:14.373Z,837.5
2022-09-23T14:03:14.328Z,837.5
2022-09-23T14:04:14.387Z,838.357
2022-09-23T14:05:14.412Z,868.357
2022-09-23T14:06:14.425Z,879.214
2022-09-23T14:07:14.464Z,864.214
2022-09-23T14:08:14.519Z,840
2022-09-23T14:09:14.526Z,821.714
2022-09-23T14:10:14.561Z,814.214
2022-09-23T14:11:14.601Z,814.214
2022-09-23T14:12:14.633Z,814.214
2022-09-23T14:13:14.689Z,812.5
2022-09-23T14:14:14.708Z,802.5
2022-09-23T14:15:14.739Z,798.357
2022-09-23T14:16:15.083Z,800
2022-09-23T14:17:14.808Z,800.857
2022-09-23T14:18:14.870Z,801.714
2022-09-23T14:19:14.924Z,800
2022-09-23T14:20:14.922Z,793.357
2022-09-23T14:21:14.956Z,784.214
2022-09-23T14:22:14.989Z,782.5
2022-09-23T14:23:15.024Z,787.5
2022-09-23T14:24:15.082Z,800
2022-09-23T14:25:15.092Z,801.714
2022-09-23T14:26:15.118Z,790.857
2022-09-23T14:27:15.167Z,779.214
2022-09-23T14:28:15.197Z,772.5
2022-09-23T14:29:15.260Z,762.5
2022-09-23T14:30:15.264Z,758.357
2022-09-23T14:31:15.361Z,753.357
2022-09-23T14:32:15.331Z,753.357
2022-09-23T14:33:15.367Z,770
2022-09-23T14:34:15.422Z,790
2022-09-23T14:35:15.427Z,809.214
2022-09-23T14:36:15.473Z,816.714
2022-09-23T14:37:15.508Z,830.857
2022-09-23T14:38:15.543Z,853.357
2022-09-23T14:39:15.595Z,872.5
2022-09-23T14:40:15.706Z,883.357
2022-09-23T14:41:15.691Z,875.857
2022-09-23T14:42:15.691Z,840.857
2022-09-23T14:43:15.830Z,782.5
2022-09-23T14:44:15.798Z,731.714
2022-09-23T14:45:15.802Z,685
2022-09-23T14:46:15.942Z,654.214
2022-09-23T14:47:15.876Z,633.357
2022-09-23T14:48:15.915Z,625
2022-09-23T14:49:15.995Z,622.5
2022-09-23T14:50:15.984Z,624.214
2022-09-23T14:51:17.200Z,621.714
2022-09-23T14:52:16.050Z,610.857
2022-09-23T14:53:16.091Z,596.714
2022-09-23T14:54:16.154Z,579.214
2022-09-23T14:55:16.156Z,565
2022-09-23T14:56:16.195Z,560.857
2022-09-23T14:57:16.233Z,568.357
2022-09-23T14:58:16.269Z,584.214
2022-09-23T14:59:16.332Z,606.714
2022-09-23T15:00:16.381Z,621.714
2022-09-23T15:01:16.421Z,629.214
2022-09-23T15:02:16.415Z,637.5
2022-09-23T15:03:16.531Z,658.357
2022-09-23T15:04:16.472Z,690
2022-09-23T15:05:16.536Z,730.857
2022-09-23T15:06:16.535Z,772.5
2022-09-23T15:07:16.560Z,813.357
2022-09-23T15:08:16.594Z,845.857
2022-09-23T15:09:16.621Z,861.714
2022-09-23T15:10:16.669Z,867.5
2022-09-23T15:11:16.709Z,871.714
2022-09-23T15:12:16.714Z,870
2022-09-23T15:13:16.757Z,864.214
2022-09-23T15:14:36.689Z,855.857
2022-09-23T15:15:16.813Z,844.214
2022-09-23T15:16:16.938Z,828.357
2022-09-23T15:17:16.882Z,814.214
2022-09-23T15:18:16.904Z,793.357
2022-09-23T15:19:16.939Z,775
2022-09-23T15:20:16.984Z,765.857
2022-09-23T15:21:17.039Z,764.214
2022-09-23T15:22:17.047Z,773.357
2022-09-23T15:23:17.076Z,788.357
2022-09-23T15:24:17.112Z,797.5
2022-09-23T15:25:17.154Z,801.714
2022-09-23T15:26:17.216Z,804.214
2022-09-23T15:27:17.231Z,802.5
2022-09-23T15:28:17.267Z,796.714
2022-09-23T15:29:17.303Z,789.214
2022-09-23T15:30:17.338Z,784.214
2022-09-23T15:31:17.484Z,783.357
2022-09-23T15:32:17.411Z,786.714
2022-09-23T15:33:17.439Z,791.714
2022-09-23T15:34:17.468Z,790.857
2022-09-23T15:35:17.538Z,787.5
2022-09-23T15:36:17.542Z,781.714
2022-09-23T15:37:17.583Z,775.857
2022-09-23T15:38:17.646Z,769.214
2022-09-23T15:39:17.660Z,759.214
2022-09-23T15:40:17.728Z,750.857
2022-09-23T15:41:17.719Z,748.357
2022-09-23T15:42:17.732Z,746.714
2022-09-23T15:43:20.644Z,748.357
2022-09-23T15:44:17.807Z,750
2022-09-23T15:45:17.834Z,750
2022-09-23T15:46:17.926Z,742.5
2022-09-23T15:47:17.901Z,726.714
2022-09-23T15:48:17.970Z,710
2022-09-23T15:49:17.971Z,697.5
2022-09-23T15:50:18.014Z,706.714
2022-09-23T15:51:18.058Z,718.357
2022-09-23T15:52:18.088Z,725.857
2022-09-23T15:53:18.145Z,732.5
2022-09-23T15:54:18.160Z,740
2022-09-23T15:55:18.199Z,735.857
2022-09-23T15:56:18.244Z,723.357
2022-09-23T15:57:18.271Z,710.857
2022-09-23T15:58:18.342Z,696.714
2022-09-23T15:59:18.336Z,683.357
2022-09-23T16:00:18.382Z,683.357
2022-09-23T16:01:18.437Z,726.714
2022-09-23T16:02:18.537Z,760
2022-09-23T16:03:18.518Z,749.214
2022-09-23T16:04:18.525Z,733.357
2022-09-23T16:05:18.562Z,710
2022-09-23T16:06:18.625Z,700
2022-09-23T16:07:18.633Z,691.714
2022-09-23T16:08:18.666Z,673.357
2022-09-23T16:09:18.708Z,664.214
2022-09-23T16:10:18.772Z,656.714
2022-09-23T16:11:18.829Z,655
2022-09-23T16:12:18.814Z,632.5
2022-09-23T16:13:18.848Z,608.357
2022-09-23T16:14:18.886Z,595.857
2022-09-23T16:15:18.911Z,597.5
2022-09-23T16:16:19.097Z,602.5
2022-09-23T16:17:18.973Z,603.357
2022-09-23T16:18:19.011Z,599.214
2022-09-23T16:19:19.038Z,592.5
2022-09-23T16:20:19.084Z,587.5
2022-09-23T16:21:19.112Z,584.214
2022-09-23T16:22:19.161Z,584.214
2022-09-23T16:23:19.179Z,584.214
2022-09-23T16:24:19.224Z,582.5
2022-09-23T16:25:19.300Z,579.214
2022-09-23T16:26:19.298Z,575.857
2022-09-23T16:27:19.331Z,575
2022-09-23T16:28:19.373Z,572.5
2022-09-23T16:29:19.409Z,568.357
2022-09-23T16:30:19.471Z,562.5
2022-09-23T16:31:19.567Z,555.857
2022-09-23T16:32:22.239Z,545
2022-09-23T16:33:19.554Z,530.857
2022-09-23T16:34:19.589Z,520.857
2022-09-23T16:35:19.649Z,503.357
2022-09-23T16:36:19.687Z,476.714
2022-09-23T16:37:19.699Z,450
2022-09-23T16:38:19.734Z,426.714
2022-09-23T16:39:19.756Z,405
2022-09-23T16:40:19.941Z,387.5
2022-09-23T16:41:19.849Z,366.714
2022-09-23T16:42:19.881Z,350.857
2022-09-23T16:43:19.891Z,326.714
2022-09-23T16:44:19.924Z,290
2022-09-23T16:45:19.991Z,250
2022-09-23T16:46:20.115Z,210.857
2022-09-23T16:47:20.012Z,175.857
2022-09-23T16:48:20.048Z,148.357
2022-09-23T16:49:20.088Z,127.5
2022-09-23T16:50:20.135Z,111.714
2022-09-23T16:51:20.145Z,99.2143
2022-09-23T16:52:20.181Z,89.2143
2022-09-23T16:53:20.259Z,80